Time;durP1;ratioP1;P1;durP2;ratioP2;P2;SDS_P1;SDS_P2;PMS_P1;PMS_P2;Temp;Humidity;BMP_temperature;BMP_pressure;BME280_temperature;BME280_humidity;BME280_pressure;Samples;Min_cycle;Max_cycle;Signal;HPM_P1;HPM_P2
2023/12/12 00:00:34;;;;;;;1.38;1.25;;;;;;;7.38;100.00;99893.25;5030168;28;20197;-68
2023/12/12 00:03:03;;;;;;;1.35;0.82;;;;;;;7.32;100.00;99896.75;5024401;28;20264;-68
2023/12/12 00:05:33;;;;;;;1.27;0.90;;;;;;;7.32;100.00;99899.44;5027531;28;20279;-68
2023/12/12 00:08:02;;;;;;;1.40;1.20;;;;;;;7.31;100.00;99892.41;5033104;28;20193;-68
2023/12/12 00:10:31;;;;;;;1.00;0.88;;;;;;;7.40;100.00;99901.13;5022833;28;20675;-67
2023/12/12 00:13:01;;;;;;;3.45;0.88;;;;;;;7.46;100.00;99911.06;5034189;28;20212;-68
2023/12/12 00:15:30;;;;;;;1.58;0.95;;;;;;;7.39;100.00;99912.94;5027677;28;20221;-70
2023/12/12 00:17:59;;;;;;;2.45;1.15;;;;;;;7.37;100.00;99901.53;5030786;28;20276;-68
2023/12/12 00:20:28;;;;;;;1.85;0.93;;;;;;;7.31;100.00;99915.81;5027728;28;20189;-68
2023/12/12 00:22:59;;;;;;;1.20;0.68;;;;;;;7.31;100.00;99918.53;5025825;28;20268;-69
2023/12/12 00:25:28;;;;;;;1.30;0.70;;;;;;;7.34;100.00;99918.94;5033187;28;20689;-66
2023/12/12 00:27:57;;;;;;;0.88;0.70;;;;;;;7.37;100.00;99912.28;5028417;28;20256;-70
2023/12/12 00:30:27;;;;;;;2.83;1.23;;;;;;;7.32;100.00;99915.59;5027086;28;20198;-69
2023/12/12 00:32:56;;;;;;;1.00;0.70;;;;;;;7.30;100.00;99916.84;5026982;28;20736;-68
2023/12/12 00:35:26;;;;;;;3.92;0.80;;;;;;;7.34;100.00;99927.00;5030690;28;20209;-68
2023/12/12 00:37:55;;;;;;;2.15;1.10;;;;;;;7.20;100.00;99929.88;5028964;28;20244;-69
2023/12/12 00:40:23;;;;;;;0.90;0.50;;;;;;;7.23;100.00;99930.28;5028516;28;20186;-68
2023/12/12 00:42:53;;;;;;;1.08;0.60;;;;;;;7.25;100.00;99943.53;5033594;28;20185;-69
2023/12/12 00:45:22;;;;;;;1.42;0.60;;;;;;;7.12;100.00;99938.94;5021291;28;20627;-70
2023/12/12 00:47:52;;;;;;;0.80;0.60;;;;;;;7.19;100.00;99949.72;5024648;28;20205;-67
2023/12/12 00:50:21;;;;;;;0.90;0.70;;;;;;;7.11;100.00;99945.38;5029257;28;20199;-68
2023/12/12 00:52:50;;;;;;;1.10;0.68;;;;;;;7.07;100.00;99954.84;5029371;28;20564;-69
2023/12/12 00:55:19;;;;;;;1.67;0.73;;;;;;;7.10;100.00;99959.03;5022501;28;20214;-69
2023/12/12 00:57:47;;;;;;;1.45;1.35;;;;;;;7.14;100.00;99961.09;5031493;28;20228;-68
2023/12/12 01:00:18;;;;;;;1.65;0.70;;;;;;;7.13;100.00;99967.50;5028429;28;20194;-69
2023/12/12 01:02:47;;;;;;;1.15;0.88;;;;;;;7.10;100.00;99967.09;5042481;28;20200;-69
2023/12/12 01:05:17;;;;;;;1.60;0.80;;;;;;;7.05;100.00;99977.63;5036459;28;20213;-71
2023/12/12 01:07:47;;;;;;;1.52;1.35;;;;;;;7.09;100.00;99979.72;5024193;28;20196;-68
2023/12/12 01:10:15;;;;;;;1.55;0.68;;;;;;;6.98;100.00;99982.97;5026871;28;20190;-68
2023/12/12 01:12:44;;;;;;;1.00;0.70;;;;;;;6.99;100.00;99985.47;5023639;28;20194;-70
2023/12/12 01:15:13;;;;;;;0.90;0.63;;;;;;;7.08;100.00;99988.81;5027882;28;20205;-69
2023/12/12 01:17:42;;;;;;;1.48;1.30;;;;;;;6.99;100.00;99995.41;5022725;28;20205;-69
2023/12/12 01:20:12;;;;;;;1.25;1.15;;;;;;;6.95;100.00;99999.53;5035251;28;20189;-67
2023/12/12 01:22:42;;;;;;;2.08;0.93;;;;;;;6.90;100.00;100002.81;5028036;28;20197;-69
2023/12/12 01:25:11;;;;;;;1.70;1.33;;;;;;;7.06;100.00;100003.50;5025920;28;20217;-68
2023/12/12 01:27:40;;;;;;;0.90;0.60;;;;;;;7.11;100.00;100001.88;5025235;28;20189;-68
2023/12/12 01:30:10;;;;;;;0.80;0.50;;;;;;;7.14;100.00;100004.16;5040277;28;20189;-68
2023/12/12 01:32:38;;;;;;;1.70;1.05;;;;;;;7.16;100.00;100020.09;5027172;28;20196;-69
2023/12/12 01:35:08;;;;;;;2.08;0.70;;;;;;;7.26;100.00;100015.97;5036845;28;20263;-69
2023/12/12 01:37:37;;;;;;;1.83;0.88;;;;;;;7.14;100.00;100014.91;5030486;28;20233;-68
2023/12/12 01:40:09;;;;;;;0.88;0.55;;;;;;;7.29;100.00;100017.44;5025980;28;20189;-69
2023/12/12 01:42:38;;;;;;;1.45;1.20;;;;;;;7.18;100.00;100015.34;5039608;28;20193;-69
2023/12/12 01:45:08;;;;;;;2.67;1.58;;;;;;;7.19;100.00;100030.44;5032279;28;20213;-69
2023/12/12 01:47:37;;;;;;;1.27;0.73;;;;;;;7.27;100.00;100030.25;5022482;28;20212;-68
2023/12/12 01:50:08;;;;;;;1.85;1.73;;;;;;;7.17;100.00;100027.94;5029033;28;20268;-69
2023/12/12 01:52:38;;;;;;;3.58;0.75;;;;;;;7.16;100.00;100039.78;5033638;28;20264;-70
2023/12/12 01:55:09;;;;;;;2.67;1.35;;;;;;;7.14;100.00;100032.91;5016172;28;20646;-68
2023/12/12 01:57:40;;;;;;;1.35;1.17;;;;;;;7.25;100.00;100037.72;5027493;28;20220;-68
2023/12/12 02:00:11;;;;;;;2.20;1.52;;;;;;;7.22;100.00;100040.81;5031568;28;20201;-67
2023/12/12 02:02:40;;;;;;;1.48;1.33;;;;;;;7.18;100.00;100037.69;5021709;28;20198;-68
2023/12/12 02:05:10;;;;;;;1.00;0.88;;;;;;;7.10;100.00;100027.13;5027436;28;20221;-67
2023/12/12 02:07:39;;;;;;;2.08;1.20;;;;;;;7.15;100.00;100031.88;5019647;28;20244;-68
2023/12/12 02:10:10;;;;;;;1.85;0.95;;;;;;;7.15;100.00;100027.34;5030895;28;20192;-67
2023/12/12 02:12:39;;;;;;;4.40;1.30;;;;;;;7.15;100.00;100021.97;5022568;28;20190;-68
2023/12/12 02:15:09;;;;;;;1.38;1.27;;;;;;;6.94;100.00;100017.50;5028452;28;20244;-68
2023/12/12 02:17:38;;;;;;;4.35;2.88;;;;;;;7.02;100.00;100013.81;5027180;28;20239;-69
2023/12/12 02:20:08;;;;;;;1.15;0.65;;;;;;;7.03;100.00;100010.09;5039094;28;20189;-69
2023/12/12 02:22:38;;;;;;;1.25;1.10;;;;;;;6.96;100.00;100017.31;5030203;28;20197;-68
2023/12/12 02:25:08;;;;;;;0.90;0.52;;;;;;;6.95;100.00;100024.56;5024866;28;20217;-69
2023/12/12 02:27:38;;;;;;;1.42;0.75;;;;;;;7.05;100.00;100026.88;5027071;28;20252;-68
2023/12/12 02:30:09;;;;;;;3.85;1.38;;;;;;;7.01;100.00;100022.94;5032668;28;20239;-69
2023/12/12 02:32:38;;;;;;;1.42;0.93;;;;;;;7.27;100.00;100035.66;5021143;28;20272;-70
2023/12/12 02:35:08;;;;;;;1.25;0.80;;;;;;;7.13;100.00;100032.06;5024010;28;20228;-68
2023/12/12 02:37:39;;;;;;;1.83;1.65;;;;;;;7.29;100.00;100038.97;5027709;28;20201;-70
2023/12/12 02:40:09;;;;;;;0.90;0.70;;;;;;;7.22;100.00;100040.81;5022025;28;20194;-66
2023/12/12 02:42:42;;;;;;;1.55;0.93;;;;;;;7.34;100.00;100036.50;5022813;28;20274;-67
2023/12/12 02:45:12;;;;;;;1.10;0.70;;;;;;;7.26;100.00;100034.81;5017595;28;20689;-68
2023/12/12 02:47:41;;;;;;;1.35;1.10;;;;;;;7.36;100.00;100032.56;5023732;28;20205;-69
2023/12/12 02:50:10;;;;;;;0.90;0.50;;;;;;;7.28;100.00;100038.16;5017345;28;20194;-69
2023/12/12 02:52:41;;;;;;;3.42;1.73;;;;;;;7.28;100.00;100038.16;5028705;28;20198;-69
2023/12/12 02:55:10;;;;;;;1.25;1.00;;;;;;;7.26;100.00;100036.69;5026002;28;20229;-67
2023/12/12 02:57:39;;;;;;;0.95;0.73;;;;;;;7.19;100.00;100039.34;5021919;28;20534;-68
2023/12/12 03:00:09;;;;;;;1.20;1.10;;;;;;;7.21;100.00;100041.84;5029038;28;20611;-68
2023/12/12 03:02:38;;;;;;;1.08;0.80;;;;;;;7.12;100.00;100043.03;5018997;28;20194;-70
2023/12/12 03:05:07;;;;;;;1.92;0.88;;;;;;;7.23;100.00;100046.00;5032196;28;20312;-69
2023/12/12 03:07:36;;;;;;;1.27;1.17;;;;;;;7.23;100.00;100051.38;5021035;28;20553;-69
2023/12/12 03:10:08;;;;;;;2.15;1.05;;;;;;;7.15;100.00;100037.28;5032266;28;20264;-68
2023/12/12 03:12:37;;;;;;;1.40;0.88;;;;;;;7.15;100.00;100039.97;5019732;28;20189;-69
2023/12/12 03:15:06;;;;;;;1.60;1.35;;;;;;;7.13;100.00;100050.09;5028727;28;20241;-69
2023/12/12 03:17:35;;;;;;;1.70;1.48;;;;;;;7.09;100.00;100055.03;5026488;28;20217;-68
2023/12/12 03:20:05;;;;;;;3.55;1.10;;;;;;;7.13;100.00;100052.78;5028935;28;20189;-69
2023/12/12 03:22:35;;;;;;;1.58;1.25;;;;;;;7.16;100.00;100050.53;5029812;28;20194;-69
2023/12/12 03:25:04;;;;;;;1.17;1.05;;;;;;;7.18;100.00;100053.00;5030443;28;20225;-69
2023/12/12 03:27:35;;;;;;;2.15;1.95;;;;;;;7.19;100.00;100051.97;5033141;28;20292;-70
2023/12/12 03:30:04;;;;;;;2.13;1.13;;;;;;;7.21;100.00;100045.34;5032582;28;20188;-70
2023/12/12 03:32:33;;;;;;;2.65;1.45;;;;;;;7.11;100.00;100046.78;5033629;28;20201;-68
2023/12/12 03:35:02;;;;;;;2.78;1.55;;;;;;;7.14;100.00;100057.97;5031815;28;20307;-68
2023/12/12 03:37:32;;;;;;;1.38;1.00;;;;;;;7.10;100.00;100056.69;5032723;28;20190;-67
2023/12/12 03:40:01;;;;;;;3.85;1.95;;;;;;;7.12;100.00;100059.19;5039525;28;20202;-69
2023/12/12 03:42:30;;;;;;;6.15;2.95;;;;;;;7.33;100.00;100056.38;5035650;28;20225;-68
2023/12/12 03:45:00;;;;;;;2.95;1.55;;;;;;;7.23;100.00;100062.13;5036213;28;20216;-69
2023/12/12 03:47:29;;;;;;;2.08;1.63;;;;;;;7.15;100.00;100056.94;5028773;28;20240;-68
2023/12/12 03:49:59;;;;;;;5.93;2.90;;;;;;;7.27;100.00;100062.56;5029933;28;20193;-69
2023/12/12 03:52:28;;;;;;;3.58;2.65;;;;;;;7.27;100.00;100063.38;5032019;28;20272;-69
2023/12/12 03:54:57;;;;;;;2.95;2.65;;;;;;;7.27;100.00;100062.56;5043621;28;20224;-69
2023/12/12 03:57:26;;;;;;;2.10;1.90;;;;;;;7.27;100.00;100066.09;5028228;28;20198;-68
2023/12/12 03:59:54;;;;;;;2.00;1.77;;;;;;;7.28;100.00;100064.22;5030560;28;20197;-69
2023/12/12 04:02:25;;;;;;;3.75;2.22;;;;;;;7.28;100.00;100059.69;5035972;28;20625;-67
2023/12/12 04:04:54;;;;;;;1.40;0.82;;;;;;;7.31;100.00;100061.94;5024515;28;20218;-70
2023/12/12 04:07:22;;;;;;;8.93;4.72;;;;;;;7.31;100.00;100064.63;5030601;28;20197;-68
2023/12/12 04:09:52;;;;;;;2.70;2.42;;;;;;;7.27;100.00;100059.88;5038082;28;20216;-68
2023/12/12 04:12:20;;;;;;;1.58;1.48;;;;;;;7.37;100.00;100073.78;5033853;28;20538;-68
2023/12/12 04:14:49;;;;;;;5.18;3.90;;;;;;;7.42;100.00;100072.16;5028619;28;20214;-68
2023/12/12 04:17:19;;;;;;;1.77;1.38;;;;;;;7.39;100.00;100067.19;5031820;28;20188;-68
2023/12/12 04:19:49;;;;;;;2.97;1.60;;;;;;;7.27;100.00;100068.78;5031592;28;20555;-68
2023/12/12 04:22:18;;;;;;;2.75;2.20;;;;;;;7.20;100.00;100070.63;5034520;28;20243;-68
2023/12/12 04:24:47;;;;;;;4.00;2.47;;;;;;;7.29;100.00;100066.72;5024800;28;20307;-68
2023/12/12 04:27:16;;;;;;;2.45;2.25;;;;;;;7.27;100.00;100067.94;5028581;28;20185;-68
2023/12/12 04:29:45;;;;;;;3.17;1.95;;;;;;;7.26;100.00;100072.50;5027743;28;20189;-68
2023/12/12 04:32:15;;;;;;;2.40;1.50;;;;;;;7.11;100.00;100079.91;5023964;28;20186;-68
2023/12/12 04:34:45;;;;;;;2.65;1.52;;;;;;;7.27;100.00;100073.31;5022812;28;20308;-68
2023/12/12 04:37:15;;;;;;;4.20;2.70;;;;;;;7.36;100.00;100072.94;5030070;28;20194;-69
2023/12/12 04:39:44;;;;;;;2.42;2.05;;;;;;;7.23;100.00;100072.91;5034777;28;20201;-69
2023/12/12 04:42:14;;;;;;;4.53;1.65;;;;;;;7.30;100.00;100072.94;5029642;28;20185;-69
2023/12/12 04:44:43;;;;;;;2.47;2.28;;;;;;;7.37;100.00;100071.09;5034230;28;20241;-68
2023/12/12 04:47:13;;;;;;;1.98;1.77;;;;;;;7.34;100.00;100069.66;5027093;28;20689;-68
2023/12/12 04:49:41;;;;;;;3.67;2.55;;;;;;;7.38;100.00;100081.66;5030674;28;20186;-69
2023/12/12 04:52:10;;;;;;;2.13;1.90;;;;;;;7.40;100.00;100085.00;5032353;28;20238;-68
2023/12/12 04:54:41;;;;;;;4.63;1.63;;;;;;;7.37;100.00;100079.16;5025467;28;20221;-68
2023/12/12 04:57:10;;;;;;;2.60;2.30;;;;;;;7.41;100.00;100080.41;5031390;28;20186;-67
2023/12/12 04:59:38;;;;;;;2.35;1.05;;;;;;;7.27;100.00;100073.31;5027339;28;20193;-68
2023/12/12 05:02:07;;;;;;;2.13;1.42;;;;;;;7.40;100.00;100085.00;5030946;28;20200;-67
2023/12/12 05:04:37;;;;;;;2.60;2.20;;;;;;;7.35;100.00;100082.06;5031371;28;20216;-68
2023/12/12 05:07:06;;;;;;;2.50;1.77;;;;;;;7.22;100.00;100087.38;5026775;28;20308;-68
2023/12/12 05:09:35;;;;;;;1.45;1.15;;;;;;;7.02;100.00;100086.44;5025545;28;20236;-68
2023/12/12 05:12:06;;;;;;;1.65;1.52;;;;;;;7.24;100.00;100085.34;5029892;28;20538;-68
2023/12/12 05:14:35;;;;;;;4.90;1.85;;;;;;;7.30;100.00;100083.69;5032156;28;20312;-67
2023/12/12 05:17:04;;;;;;;1.63;1.30;;;;;;;7.37;100.00;100080.00;5029777;28;20185;-69
2023/12/12 05:19:38;;;;;;;6.07;3.13;;;;;;;7.34;100.00;100080.41;5021758;28;20190;-69
2023/12/12 05:22:08;;;;;;;2.58;0.90;;;;;;;7.24;100.00;100088.03;5027062;28;20603;-68
2023/12/12 05:24:37;;;;;;;2.28;2.10;;;;;;;6.96;100.00;100092.63;5027833;28;20256;-68
2023/12/12 05:27:07;;;;;;;2.25;1.60;;;;;;;6.88;100.00;100085.53;5024496;28;20206;-69
2023/12/12 05:29:36;;;;;;;3.05;2.25;;;;;;;6.83;100.00;100092.53;5033993;28;20213;-70
2023/12/12 05:32:06;;;;;;;2.97;2.55;;;;;;;6.96;100.00;100098.03;5024081;28;20248;-69
2023/12/12 05:34:35;;;;;;;3.42;2.25;;;;;;;7.01;100.00;100103.63;5023386;28;20668;-68
2023/12/12 05:37:04;;;;;;;1.83;1.35;;;;;;;7.13;100.00;100102.03;5025457;28;20219;-68
2023/12/12 05:39:33;;;;;;;3.70;1.90;;;;;;;7.01;100.00;100105.50;5029704;28;20204;-68
2023/12/12 05:42:02;;;;;;;2.30;2.10;;;;;;;6.89;100.00;100102.50;5040180;28;20185;-68
2023/12/12 05:44:33;;;;;;;3.55;1.70;;;;;;;7.14;100.00;100110.94;5028643;28;20561;-68
2023/12/12 05:47:02;;;;;;;4.97;2.83;;;;;;;6.87;100.00;100104.59;5018798;28;20212;-69
2023/12/12 05:49:31;;;;;;;1.33;1.23;;;;;;;6.93;100.00;100110.00;5030519;28;20193;-69
2023/12/12 05:52:03;;;;;;;1.98;1.65;;;;;;;7.06;100.00;100113.81;5023580;28;20189;-69
2023/12/12 05:54:35;;;;;;;2.05;1.85;;;;;;;7.13;100.00;100114.66;5022514;28;20309;-68
2023/12/12 05:57:04;;;;;;;2.50;2.08;;;;;;;7.11;100.00;100122.09;5025925;28;20201;-68
2023/12/12 05:59:36;;;;;;;2.85;2.35;;;;;;;7.04;100.00;100116.69;5023441;28;20263;-68
2023/12/12 06:02:05;;;;;;;1.83;1.67;;;;;;;7.13;100.00;100118.19;5029199;28;20701;-68
2023/12/12 06:04:35;;;;;;;2.40;2.20;;;;;;;6.95;100.00;100117.88;5031618;28;20232;-69
2023/12/12 06:07:05;;;;;;;0.90;0.80;;;;;;;7.01;100.00;100119.78;5023389;28;20205;-69
2023/12/12 06:09:34;;;;;;;2.10;1.55;;;;;;;7.10;100.00;100126.66;5032325;28;20209;-68
2023/12/12 06:12:03;;;;;;;1.38;1.00;;;;;;;7.13;100.00;100126.25;5031025;28;20268;-69
2023/12/12 06:14:35;;;;;;;2.60;1.50;;;;;;;7.10;100.00;100137.41;5025763;28;20214;-67
2023/12/12 06:17:05;;;;;;;2.78;1.58;;;;;;;7.13;100.00;100136.19;5026762;28;20534;-69
2023/12/12 06:19:34;;;;;;;3.45;0.95;;;;;;;7.01;100.00;100143.16;5026963;28;20208;-68
2023/12/12 06:22:03;;;;;;;2.45;1.25;;;;;;;7.21;100.00;100133.34;5035718;28;20196;-68
2023/12/12 06:24:36;;;;;;;2.78;1.42;;;;;;;7.11;100.00;100135.56;5028949;28;20586;-68
2023/12/12 06:27:05;;;;;;;2.35;2.15;;;;;;;7.09;100.00;100137.59;5024889;28;20580;-69
2023/12/12 06:29:35;;;;;;;1.15;0.80;;;;;;;7.14;100.00;100140.53;5025843;28;20625;-68
2023/12/12 06:32:05;;;;;;;1.10;0.90;;;;;;;7.07;100.00;100140.47;5024922;28;20220;-68
2023/12/12 06:34:34;;;;;;;1.63;1.52;;;;;;;7.05;100.00;100147.94;5024692;28;20220;-67
2023/12/12 06:37:03;;;;;;;1.33;1.23;;;;;;;7.05;100.00;100150.63;5034975;28;20189;-68
2023/12/12 06:39:34;;;;;;;1.10;1.00;;;;;;;7.09;100.00;100157.28;5026960;28;20204;-68
2023/12/12 06:42:03;;;;;;;0.90;0.80;;;;;;;7.05;100.00;100156.00;5040321;28;20211;-68
2023/12/12 06:44:33;;;;;;;1.80;1.10;;;;;;;7.18;100.00;100161.47;5027280;28;20256;-68
2023/12/12 06:47:02;;;;;;;1.42;1.10;;;;;;;7.05;100.00;100166.78;5022352;28;20273;-68
2023/12/12 06:49:32;;;;;;;1.75;1.42;;;;;;;7.08;100.00;100166.38;5017715;28;20194;-66
2023/12/12 06:52:03;;;;;;;1.00;0.65;;;;;;;7.07;100.00;100171.97;5028053;28;20197;-68
2023/12/12 06:54:32;;;;;;;2.17;2.03;;;;;;;6.96;100.00;100173.34;5029445;28;20229;-66
2023/12/12 06:57:01;;;;;;;1.38;1.17;;;;;;;7.09;100.00;100168.03;5024100;28;20197;-67
2023/12/12 06:59:30;;;;;;;3.28;1.55;;;;;;;6.91;100.00;100170.41;5020957;28;20190;-68
2023/12/12 07:02:01;;;;;;;1.00;0.80;;;;;;;6.92;100.00;100169.38;5027774;28;20193;-66
2023/12/12 07:04:32;;;;;;;2.28;1.58;;;;;;;6.91;100.00;100165.00;5028369;28;20209;-68
2023/12/12 07:07:01;;;;;;;1.73;1.63;;;;;;;6.82;100.00;100171.56;5024092;28;20205;-68
2023/12/12 07:09:30;;;;;;;2.60;1.27;;;;;;;7.01;100.00;100170.06;5020705;28;20615;-69
2023/12/12 07:11:59;;;;;;;3.08;1.13;;;;;;;6.97;100.00;100175.00;5032025;28;20201;-70
2023/12/12 07:14:28;;;;;;;3.70;1.67;;;;;;;6.90;100.00;100179.47;5024709;28;20631;-68
2023/12/12 07:16:57;;;;;;;2.08;1.38;;;;;;;6.85;100.00;100176.56;5031682;28;20240;-68
2023/12/12 07:19:28;;;;;;;2.95;1.17;;;;;;;6.79;100.00;100182.69;5021236;28;20198;-68
2023/12/12 07:21:57;;;;;;;3.08;1.65;;;;;;;6.86;100.00;100184.44;5034428;28;20201;-68
2023/12/12 07:24:26;;;;;;;3.80;1.20;;;;;;;7.01;100.00;100187.03;5032367;28;20212;-67
2023/12/12 07:26:54;;;;;;;1.40;1.05;;;;;;;6.94;100.00;100186.13;5033225;28;20201;-68
2023/12/12 07:29:23;;;;;;;2.40;1.70;;;;;;;6.90;100.00;100182.19;5026013;28;20193;-68
2023/12/12 07:31:52;;;;;;;2.05;1.85;;;;;;;6.91;100.00;100189.22;5023889;28;20221;-69
2023/12/12 07:34:21;;;;;;;2.55;2.35;;;;;;;6.93;100.00;100195.22;5025180;28;20656;-69
2023/12/12 07:36:51;;;;;;;2.45;1.40;;;;;;;6.92;100.00;100191.69;5023622;28;20281;-68
2023/12/12 07:39:20;;;;;;;1.27;1.17;;;;;;;6.97;100.00;100191.13;5026773;28;20190;-68
2023/12/12 07:41:49;;;;;;;2.95;1.48;;;;;;;6.91;100.00;100181.16;5029997;28;20236;-67
2023/12/12 07:44:18;;;;;;;1.42;0.98;;;;;;;6.93;100.00;100185.31;5028591;28;20309;-67
2023/12/12 07:46:47;;;;;;;3.25;2.42;;;;;;;6.95;100.00;100177.03;5027881;28;20674;-68
2023/12/12 07:49:16;;;;;;;1.40;1.30;;;;;;;6.89;100.00;100184.03;5018091;28;20252;-68
2023/12/12 07:51:45;;;;;;;2.15;1.95;;;;;;;7.00;100.00;100179.97;5025516;28;20193;-69
2023/12/12 07:54:16;;;;;;;2.40;1.83;;;;;;;7.08;100.00;100176.28;5024734;28;20588;-67
2023/12/12 07:56:45;;;;;;;1.55;0.95;;;;;;;7.04;100.00;100180.41;5026563;28;20217;-67
2023/12/12 07:59:14;;;;;;;2.00;1.90;;;;;;;7.14;100.00;100184.41;5027899;28;20196;-67
2023/12/12 08:01:43;;;;;;;1.88;1.55;;;;;;;6.98;100.00;100177.47;5035696;28;20196;-68
2023/12/12 08:04:13;;;;;;;1.45;1.35;;;;;;;7.12;100.00;100188.31;5027676;28;20210;-69
2023/12/12 08:06:42;;;;;;;2.08;1.88;;;;;;;7.21;100.00;100193.34;5030446;28;20196;-68
2023/12/12 08:09:11;;;;;;;3.25;2.35;;;;;;;7.26;100.00;100179.31;5023994;28;20189;-69
2023/12/12 08:11:42;;;;;;;1.45;1.23;;;;;;;7.14;100.00;100192.50;5022601;28;20245;-68
2023/12/12 08:14:11;;;;;;;2.63;1.70;;;;;;;7.27;100.00;100191.72;5026633;28;20570;-69
2023/12/12 08:16:40;;;;;;;2.35;1.70;;;;;;;7.29;100.00;100195.91;5027584;28;20206;-68
2023/12/12 08:19:09;;;;;;;2.85;2.35;;;;;;;7.19;100.00;100190.03;5026546;28;20208;-67
2023/12/12 08:21:38;;;;;;;1.50;1.30;;;;;;;7.21;100.00;100193.34;5023511;28;20205;-68
2023/12/12 08:24:08;;;;;;;2.97;2.65;;;;;;;7.21;100.00;100198.72;5026905;28;20539;-67
2023/12/12 08:26:42;;;;;;;2.80;2.65;;;;;;;7.16;100.00;100201.22;5033732;28;20193;-68
2023/12/12 08:29:14;;;;;;;2.33;2.13;;;;;;;7.11;100.00;100203.66;5021485;28;20225;-67
2023/12/12 08:31:43;;;;;;;2.55;1.90;;;;;;;7.07;100.00;100198.88;5022555;28;20277;-69
2023/12/12 08:34:12;;;;;;;5.35;2.38;;;;;;;7.06;100.00;100200.72;5032273;28;20221;-68
2023/12/12 08:36:41;;;;;;;3.08;2.88;;;;;;;7.14;100.00;100208.63;5034620;28;20299;-67
2023/12/12 08:39:11;;;;;;;1.85;1.75;;;;;;;7.24;100.00;100211.81;5030274;28;20194;-66
2023/12/12 08:41:41;;;;;;;4.15;1.63;;;;;;;7.13;100.00;100208.81;5029978;28;20194;-69
2023/12/12 08:44:10;;;;;;;4.47;2.72;;;;;;;7.28;100.00;100210.38;5023993;28;20717;-67
2023/12/12 08:46:41;;;;;;;5.05;2.72;;;;;;;7.22;100.00;100211.16;5026364;28;20630;-67
2023/12/12 08:49:10;;;;;;;2.85;2.63;;;;;;;7.28;100.00;100212.25;5030260;28;20213;-67
2023/12/12 08:51:39;;;;;;;2.53;2.33;;;;;;;7.30;100.00;100208.34;5021355;28;20190;-70
2023/12/12 08:54:09;;;;;;;2.78;2.20;;;;;;;7.32;100.00;100217.03;5034464;28;20217;-68
2023/12/12 08:56:40;;;;;;;1.38;1.08;;;;;;;7.34;100.00;100217.66;5033643;28;20676;-68
2023/12/12 08:59:11;;;;;;;2.85;2.33;;;;;;;7.38;100.00;100231.56;5029066;28;20207;-67
2023/12/12 09:01:39;;;;;;;5.03;2.33;;;;;;;7.38;100.00;100226.19;5022584;28;20247;-68
2023/12/12 09:04:13;;;;;;;4.22;2.92;;;;;;;7.40;100.00;100226.81;5022482;28;20225;-67
2023/12/12 09:06:42;;;;;;;2.88;2.67;;;;;;;7.34;100.00;100231.13;5030617;28;20251;-66
2023/12/12 09:09:12;;;;;;;2.25;2.10;;;;;;;7.52;100.00;100230.59;5021310;28;20284;-67
2023/12/12 09:11:41;;;;;;;1.27;1.17;;;;;;;7.49;100.00;100228.31;5034161;28;20243;-67
2023/12/12 09:14:11;;;;;;;2.15;1.17;;;;;;;7.46;100.00;100227.88;5026395;28;20220;-68
2023/12/12 09:16:40;;;;;;;4.47;2.05;;;;;;;7.50;100.00;100229.16;5026616;28;20197;-67
2023/12/12 09:19:09;;;;;;;3.17;2.20;;;;;;;7.53;100.00;100228.75;5023809;28;20272;-65
2023/12/12 09:21:39;;;;;;;1.65;1.55;;;;;;;7.45;100.00;100226.22;5023924;28;20186;-67
2023/12/12 09:24:08;;;;;;;1.35;0.80;;;;;;;7.46;100.00;100233.25;5028790;28;20252;-67
2023/12/12 09:26:37;;;;;;;4.30;1.77;;;;;;;7.55;100.00;100232.09;5029532;28;20211;-66
2023/12/12 09:29:06;;;;;;;1.10;0.95;;;;;;;7.54;100.00;100225.03;5021302;28;20214;-66
2023/12/12 09:31:36;;;;;;;1.98;1.75;;;;;;;7.53;100.00;100221.50;5023843;28;20256;-68
2023/12/12 09:34:06;;;;;;;1.05;0.95;;;;;;;7.46;100.00;100222.47;5030407;28;20518;-67
2023/12/12 09:36:35;;;;;;;1.95;1.63;;;;;;;7.48;100.00;100225.81;5022734;28;20193;-66
2023/12/12 09:39:07;;;;;;;3.25;1.58;;;;;;;7.39;100.00;100234.06;5018590;28;20626;-67
2023/12/12 09:41:36;;;;;;;2.40;1.63;;;;;;;7.51;100.00;100226.25;5023946;28;20194;-67
2023/12/12 09:44:05;;;;;;;1.83;1.55;;;;;;;7.33;100.00;100224.06;5025422;28;20251;-66
2023/12/12 09:46:36;;;;;;;1.45;1.25;;;;;;;7.42;100.00;100225.59;5028609;28;20718;-67
2023/12/12 09:49:06;;;;;;;1.80;1.63;;;;;;;7.45;100.00;100224.38;5023220;28;20251;-67
2023/12/12 09:51:37;;;;;;;1.67;1.23;;;;;;;7.50;100.00;100223.78;5026336;28;20198;-67
2023/12/12 09:54:07;;;;;;;1.52;0.80;;;;;;;7.56;100.00;100225.66;5027261;28;20225;-67
2023/12/12 09:56:37;;;;;;;1.52;1.15;;;;;;;7.53;100.00;100229.59;5027064;28;20208;-68
2023/12/12 09:59:07;;;;;;;2.50;2.30;;;;;;;7.56;100.00;100222.97;5022133;28;20560;-67
2023/12/12 10:01:38;;;;;;;3.15;1.45;;;;;;;7.43;100.00;100231.78;5027051;28;20290;-67
2023/12/12 10:04:08;;;;;;;2.03;1.48;;;;;;;7.43;100.00;100234.50;5027836;28;20240;-65
2023/12/12 10:06:40;;;;;;;1.35;0.88;;;;;;;7.24;100.00;100230.66;5022963;28;20683;-66
2023/12/12 10:09:09;;;;;;;2.75;2.35;;;;;;;7.14;100.00;100229.31;5016799;28;20206;-66
2023/12/12 10:11:39;;;;;;;2.50;1.70;;;;;;;7.18;100.00;100234.13;5020881;28;20564;-66
2023/12/12 10:14:10;;;;;;;1.35;1.10;;;;;;;7.13;100.00;100228.50;5028293;28;20296;-66
2023/12/12 10:16:40;;;;;;;1.70;1.60;;;;;;;7.29;100.00;100228.19;5021747;28;20185;-66
2023/12/12 10:19:13;;;;;;;1.15;0.88;;;;;;;7.21;100.00;100225.63;5025550;28;20190;-66
2023/12/12 10:21:43;;;;;;;1.35;1.25;;;;;;;7.50;100.00;100224.59;5018914;28;20192;-67
2023/12/12 10:24:12;;;;;;;1.80;1.50;;;;;;;7.50;100.00;100221.09;5025101;28;20240;-66
2023/12/12 10:26:41;;;;;;;1.30;1.20;;;;;;;7.52;100.00;100224.38;5029491;28;20221;-67
2023/12/12 10:29:11;;;;;;;13.52;2.28;;;;;;;7.25;100.00;100226.94;5028834;28;20205;-66
2023/12/12 10:31:44;;;;;;;1.98;1.88;;;;;;;7.38;100.00;100220.78;5024215;28;20785;-66
2023/12/12 10:34:13;;;;;;;1.20;1.05;;;;;;;7.36;100.00;100223.66;5028010;28;20247;-66
2023/12/12 10:36:43;;;;;;;1.70;1.60;;;;;;;7.55;100.00;100215.94;5025725;28;20193;-67
2023/12/12 10:39:13;;;;;;;1.20;1.02;;;;;;;7.59;100.00;100212.66;5021845;28;20194;-67
2023/12/12 10:41:51;;;;;;;1.83;1.73;;;;;;;7.61;100.00;100215.94;5030814;28;20207;-67
2023/12/12 10:44:22;;;;;;;1.50;1.13;;;;;;;7.67;100.00;100208.94;5017263;28;20624;-66
2023/12/12 10:46:54;;;;;;;2.75;1.83;;;;;;;7.70;100.00;100200.44;5021095;28;20209;-66
2023/12/12 10:49:27;;;;;;;1.85;1.75;;;;;;;7.56;100.00;100202.25;5019986;28;20205;-67
2023/12/12 10:51:58;;;;;;;1.50;1.30;;;;;;;7.67;100.00;100203.56;5026378;28;20201;-66
2023/12/12 10:54:29;;;;;;;1.70;1.35;;;;;;;7.75;100.00;100201.50;5024202;28;20308;-67
2023/12/12 10:57:00;;;;;;;2.30;2.13;;;;;;;7.78;100.00;100194.91;5020585;28;20202;-67
2023/12/12 10:59:31;;;;;;;5.57;3.17;;;;;;;7.95;100.00;100189.97;5023507;28;20189;-68
2023/12/12 11:02:21;;;;;;;1.95;1.75;;;;;;;7.90;100.00;100185.19;5025879;28;20272;-65
2023/12/12 11:04:52;;;;;;;1.80;1.55;;;;;;;7.97;100.00;100188.75;5019812;28;20300;-66
2023/12/12 11:07:21;;;;;;;2.25;1.05;;;;;;;8.04;100.00;100184.22;5024549;28;20193;-65
2023/12/12 11:09:49;;;;;;;1.30;1.05;;;;;;;8.00;100.00;100190.22;5021098;28;20555;-66
2023/12/12 11:12:20;;;;;;;1.75;1.25;;;;;;;7.91;100.00;100192.25;5026934;28;20185;-65
2023/12/12 11:14:49;;;;;;;5.10;2.00;;;;;;;7.68;100.00;100194.44;5028085;28;20311;-66
2023/12/12 11:17:19;;;;;;;1.85;1.23;;;;;;;7.80;100.00;100188.28;5020259;28;20214;-66
2023/12/12 11:19:50;;;;;;;2.05;1.63;;;;;;;7.73;100.00;100186.59;5020865;28;20189;-66
2023/12/12 11:22:40;;;;;;;2.85;2.45;;;;;;;7.54;100.00;100181.97;5024263;28;20224;-66
2023/12/12 11:25:16;;;;;;;4.07;2.67;;;;;;;7.74;100.00;100177.50;5031440;28;20878;-65
2023/12/12 11:27:48;;;;;;;2.00;1.70;;;;;;;7.93;100.00;100168.66;5019911;28;20225;-67
2023/12/12 11:30:20;;;;;;;2.45;2.15;;;;;;;7.95;100.00;100174.66;5030466;28;20229;-67
2023/12/12 11:32:49;;;;;;;1.80;1.70;;;;;;;8.06;100.00;100171.38;5021817;28;20194;-67
2023/12/12 11:35:29;;;;;;;1.58;1.48;;;;;;;8.08;100.00;100172.03;5030703;28;20228;-66
2023/12/12 11:38:00;;;;;;;2.75;1.52;;;;;;;8.27;100.00;100173.94;5025467;28;20634;-67